sensor_id;sensor_type;location;lat;lon;timestamp;P1;durP1;ratioP1;P2;durP2;ratioP2
21501;SDS011;27639;48.674;9.242;2022-11-12T00:00:17;11.30;;;9.57;;
21501;SDS011;27639;48.674;9.242;2022-11-12T00:02:43;13.55;;;11.00;;
21501;SDS011;27639;48.674;9.242;2022-11-12T00:05:09;20.55;;;15.90;;
21501;SDS011;27639;48.674;9.242;2022-11-12T00:07:34;23.98;;;18.70;;
21501;SDS011;27639;48.674;9.242;2022-11-12T00:10:00;20.13;;;15.35;;
21501;SDS011;27639;48.674;9.242;2022-11-12T00:12:25;18.30;;;14.30;;
21501;SDS011;27639;48.674;9.242;2022-11-12T00:14:51;16.52;;;13.43;;
21501;SDS011;27639;48.674;9.242;2022-11-12T00:17:17;19.52;;;13.57;;
21501;SDS011;27639;48.674;9.242;2022-11-12T00:19:42;15.90;;;12.68;;
21501;SDS011;27639;48.674;9.242;2022-11-12T00:22:08;16.55;;;12.23;;
21501;SDS011;27639;48.674;9.242;2022-11-12T00:24:33;15.13;;;11.25;;
21501;SDS011;27639;48.674;9.242;2022-11-12T00:26:59;14.52;;;11.25;;
21501;SDS011;27639;48.674;9.242;2022-11-12T00:29:24;13.85;;;11.18;;
21501;SDS011;27639;48.674;9.242;2022-11-12T00:31:50;14.90;;;12.20;;
21501;SDS011;27639;48.674;9.242;2022-11-12T00:34:16;15.30;;;12.13;;
21501;SDS011;27639;48.674;9.242;2022-11-12T00:36:41;15.50;;;10.60;;
21501;SDS011;27639;48.674;9.242;2022-11-12T00:39:07;13.35;;;10.10;;
21501;SDS011;27639;48.674;9.242;2022-11-12T00:41:32;15.18;;;9.80;;
21501;SDS011;27639;48.674;9.242;2022-11-12T00:43:58;15.05;;;10.52;;
21501;SDS011;27639;48.674;9.242;2022-11-12T00:46:23;12.13;;;9.98;;
21501;SDS011;27639;48.674;9.242;2022-11-12T00:48:49;12.30;;;9.43;;
21501;SDS011;27639;48.674;9.242;2022-11-12T00:51:14;12.02;;;8.90;;
21501;SDS011;27639;48.674;9.242;2022-11-12T00:53:40;10.70;;;8.45;;
21501;SDS011;27639;48.674;9.242;2022-11-12T00:56:06;11.00;;;8.60;;
21501;SDS011;27639;48.674;9.242;2022-11-12T00:58:32;10.80;;;8.15;;
21501;SDS011;27639;48.674;9.242;2022-11-12T01:01:09;10.63;;;8.75;;
21501;SDS011;27639;48.674;9.242;2022-11-12T01:03:36;10.80;;;8.57;;
21501;SDS011;27639;48.674;9.242;2022-11-12T01:06:03;11.68;;;8.55;;
21501;SDS011;27639;48.674;9.242;2022-11-12T01:08:31;12.73;;;8.73;;
21501;SDS011;27639;48.674;9.242;2022-11-12T01:11:04;11.45;;;8.63;;
21501;SDS011;27639;48.674;9.242;2022-11-12T01:13:37;13.10;;;9.65;;
21501;SDS011;27639;48.674;9.242;2022-11-12T01:16:05;12.68;;;8.98;;
21501;SDS011;27639;48.674;9.242;2022-11-12T01:18:32;10.73;;;8.38;;
21501;SDS011;27639;48.674;9.242;2022-11-12T01:20:58;12.25;;;9.27;;
21501;SDS011;27639;48.674;9.242;2022-11-12T01:23:26;12.98;;;8.55;;
21501;SDS011;27639;48.674;9.242;2022-11-12T01:25:51;14.70;;;9.32;;
21501;SDS011;27639;48.674;9.242;2022-11-12T01:28:17;14.05;;;9.27;;
21501;SDS011;27639;48.674;9.242;2022-11-12T01:30:42;11.20;;;7.50;;
21501;SDS011;27639;48.674;9.242;2022-11-12T01:33:08;11.27;;;8.10;;
21501;SDS011;27639;48.674;9.242;2022-11-12T01:35:33;11.68;;;8.25;;
21501;SDS011;27639;48.674;9.242;2022-11-12T01:37:59;10.60;;;8.05;;
21501;SDS011;27639;48.674;9.242;2022-11-12T01:40:25;10.15;;;7.75;;
21501;SDS011;27639;48.674;9.242;2022-11-12T01:42:51;11.40;;;7.40;;
21501;SDS011;27639;48.674;9.242;2022-11-12T01:45:17;9.48;;;7.07;;
21501;SDS011;27639;48.674;9.242;2022-11-12T01:47:43;10.60;;;7.47;;
21501;SDS011;27639;48.674;9.242;2022-11-12T01:50:16;10.05;;;7.15;;
21501;SDS011;27639;48.674;9.242;2022-11-12T01:52:51;10.90;;;7.40;;
21501;SDS011;27639;48.674;9.242;2022-11-12T01:55:27;11.10;;;7.53;;
21501;SDS011;27639;48.674;9.242;2022-11-12T01:58:12;8.27;;;6.95;;
21501;SDS011;27639;48.674;9.242;2022-11-12T02:00:42;10.15;;;7.25;;
21501;SDS011;27639;48.674;9.242;2022-11-12T02:03:09;9.57;;;7.03;;
21501;SDS011;27639;48.674;9.242;2022-11-12T02:05:39;9.45;;;6.93;;
21501;SDS011;27639;48.674;9.242;2022-11-12T02:08:06;8.50;;;6.50;;
21501;SDS011;27639;48.674;9.242;2022-11-12T02:10:35;8.20;;;6.70;;
21501;SDS011;27639;48.674;9.242;2022-11-12T02:13:03;9.77;;;6.80;;
21501;SDS011;27639;48.674;9.242;2022-11-12T02:15:48;10.70;;;7.30;;
21501;SDS011;27639;48.674;9.242;2022-11-12T02:18:13;9.48;;;6.80;;
21501;SDS011;27639;48.674;9.242;2022-11-12T02:20:39;9.93;;;7.00;;
21501;SDS011;27639;48.674;9.242;2022-11-12T02:23:05;10.43;;;6.75;;
21501;SDS011;27639;48.674;9.242;2022-11-12T02:25:32;11.40;;;6.57;;
21501;SDS011;27639;48.674;9.242;2022-11-12T02:27:58;9.27;;;6.65;;
21501;SDS011;27639;48.674;9.242;2022-11-12T02:30:30;9.68;;;6.30;;
21501;SDS011;27639;48.674;9.242;2022-11-12T02:33:01;9.40;;;6.72;;
21501;SDS011;27639;48.674;9.242;2022-11-12T02:35:27;10.57;;;6.40;;
21501;SDS011;27639;48.674;9.242;2022-11-12T02:37:53;8.85;;;5.93;;
21501;SDS011;27639;48.674;9.242;2022-11-12T02:40:19;8.70;;;6.05;;
21501;SDS011;27639;48.674;9.242;2022-11-12T02:42:44;11.00;;;6.32;;
21501;SDS011;27639;48.674;9.242;2022-11-12T02:45:10;8.95;;;6.25;;
21501;SDS011;27639;48.674;9.242;2022-11-12T02:47:35;9.25;;;5.78;;
21501;SDS011;27639;48.674;9.242;2022-11-12T02:50:01;9.15;;;5.95;;
21501;SDS011;27639;48.674;9.242;2022-11-12T02:52:27;7.97;;;5.53;;
21501;SDS011;27639;48.674;9.242;2022-11-12T02:54:53;8.63;;;6.03;;
21501;SDS011;27639;48.674;9.242;2022-11-12T02:57:18;7.68;;;5.30;;
21501;SDS011;27639;48.674;9.242;2022-11-12T02:59:44;7.82;;;5.45;;
21501;SDS011;27639;48.674;9.242;2022-11-12T03:02:10;8.30;;;5.93;;
21501;SDS011;27639;48.674;9.242;2022-11-12T03:04:35;8.32;;;5.78;;
21501;SDS011;27639;48.674;9.242;2022-11-12T03:07:01;7.88;;;5.22;;
21501;SDS011;27639;48.674;9.242;2022-11-12T03:09:26;7.93;;;5.18;;
21501;SDS011;27639;48.674;9.242;2022-11-12T03:11:52;5.75;;;4.95;;
21501;SDS011;27639;48.674;9.242;2022-11-12T03:14:17;8.73;;;5.20;;
21501;SDS011;27639;48.674;9.242;2022-11-12T03:16:43;5.97;;;5.10;;
21501;SDS011;27639;48.674;9.242;2022-11-12T03:19:09;7.05;;;5.43;;
21501;SDS011;27639;48.674;9.242;2022-11-12T03:21:34;6.55;;;4.97;;
21501;SDS011;27639;48.674;9.242;2022-11-12T03:24:00;8.07;;;5.13;;
21501;SDS011;27639;48.674;9.242;2022-11-12T03:26:26;6.75;;;4.97;;
21501;SDS011;27639;48.674;9.242;2022-11-12T03:28:51;7.50;;;4.88;;
21501;SDS011;27639;48.674;9.242;2022-11-12T03:31:17;6.30;;;4.50;;
21501;SDS011;27639;48.674;9.242;2022-11-12T03:33:43;5.22;;;4.18;;
21501;SDS011;27639;48.674;9.242;2022-11-12T03:36:09;6.55;;;4.90;;
21501;SDS011;27639;48.674;9.242;2022-11-12T03:38:34;6.53;;;5.00;;
21501;SDS011;27639;48.674;9.242;2022-11-12T03:41:00;10.70;;;4.70;;
21501;SDS011;27639;48.674;9.242;2022-11-12T03:43:26;6.78;;;4.97;;
21501;SDS011;27639;48.674;9.242;2022-11-12T03:45:51;6.75;;;5.05;;
21501;SDS011;27639;48.674;9.242;2022-11-12T03:48:17;7.47;;;5.22;;
21501;SDS011;27639;48.674;9.242;2022-11-12T03:50:42;7.50;;;5.35;;
21501;SDS011;27639;48.674;9.242;2022-11-12T03:53:08;9.25;;;5.30;;
21501;SDS011;27639;48.674;9.242;2022-11-12T03:55:34;8.52;;;5.15;;
21501;SDS011;27639;48.674;9.242;2022-11-12T03:57:59;8.07;;;5.50;;
21501;SDS011;27639;48.674;9.242;2022-11-12T04:00:26;7.80;;;5.40;;
21501;SDS011;27639;48.674;9.242;2022-11-12T04:02:52;8.02;;;5.30;;
21501;SDS011;27639;48.674;9.242;2022-11-12T04:05:19;8.93;;;5.88;;
21501;SDS011;27639;48.674;9.242;2022-11-12T04:08:07;8.57;;;5.85;;
21501;SDS011;27639;48.674;9.242;2022-11-12T04:10:56;8.02;;;5.55;;
21501;SDS011;27639;48.674;9.242;2022-11-12T04:13:21;8.68;;;6.20;;
21501;SDS011;27639;48.674;9.242;2022-11-12T04:16:15;9.82;;;6.63;;
21501;SDS011;27639;48.674;9.242;2022-11-12T04:18:59;9.77;;;6.45;;
21501;SDS011;27639;48.674;9.242;2022-11-12T04:21:51;8.93;;;6.53;;
21501;SDS011;27639;48.674;9.242;2022-11-12T04:27:15;8.93;;;6.38;;
21501;SDS011;27639;48.674;9.242;2022-11-12T04:29:42;8.75;;;6.43;;
21501;SDS011;27639;48.674;9.242;2022-11-12T04:32:28;10.10;;;6.25;;
21501;SDS011;27639;48.674;9.242;2022-11-12T04:34:54;8.38;;;5.85;;
21501;SDS011;27639;48.674;9.242;2022-11-12T04:37:21;8.95;;;6.72;;
21501;SDS011;27639;48.674;9.242;2022-11-12T04:39:48;7.40;;;5.70;;
21501;SDS011;27639;48.674;9.242;2022-11-12T04:42:14;10.68;;;6.90;;
21501;SDS011;27639;48.674;9.242;2022-11-12T04:44:58;11.63;;;7.50;;
21501;SDS011;27639;48.674;9.242;2022-11-12T04:47:25;10.98;;;7.45;;
21501;SDS011;27639;48.674;9.242;2022-11-12T04:49:52;10.98;;;7.22;;
21501;SDS011;27639;48.674;9.242;2022-11-12T04:52:17;12.18;;;6.90;;
21501;SDS011;27639;48.674;9.242;2022-11-12T04:54:43;9.70;;;6.22;;
21501;SDS011;27639;48.674;9.242;2022-11-12T04:57:09;9.55;;;6.60;;
21501;SDS011;27639;48.674;9.242;2022-11-12T04:59:34;14.93;;;7.05;;
21501;SDS011;27639;48.674;9.242;2022-11-12T05:02:00;14.07;;;7.25;;
21501;SDS011;27639;48.674;9.242;2022-11-12T05:04:25;13.10;;;7.57;;
21501;SDS011;27639;48.674;9.242;2022-11-12T05:06:53;12.02;;;7.68;;
21501;SDS011;27639;48.674;9.242;2022-11-12T05:09:20;11.93;;;7.22;;
21501;SDS011;27639;48.674;9.242;2022-11-12T05:11:47;12.82;;;6.72;;
21501;SDS011;27639;48.674;9.242;2022-11-12T05:14:13;10.00;;;6.85;;
21501;SDS011;27639;48.674;9.242;2022-11-12T05:16:39;15.95;;;7.30;;
21501;SDS011;27639;48.674;9.242;2022-11-12T05:19:05;15.70;;;7.05;;
21501;SDS011;27639;48.674;9.242;2022-11-12T05:21:30;15.73;;;6.75;;
21501;SDS011;27639;48.674;9.242;2022-11-12T05:24:14;14.32;;;7.22;;
21501;SDS011;27639;48.674;9.242;2022-11-12T05:26:40;11.35;;;7.43;;
21501;SDS011;27639;48.674;9.242;2022-11-12T05:29:06;16.23;;;7.63;;
21501;SDS011;27639;48.674;9.242;2022-11-12T05:31:32;11.60;;;7.35;;
21501;SDS011;27639;48.674;9.242;2022-11-12T05:33:57;10.38;;;6.80;;
21501;SDS011;27639;48.674;9.242;2022-11-12T05:36:23;11.90;;;6.60;;
21501;SDS011;27639;48.674;9.242;2022-11-12T05:38:49;15.70;;;7.18;;
21501;SDS011;27639;48.674;9.242;2022-11-12T05:41:14;13.55;;;8.00;;
21501;SDS011;27639;48.674;9.242;2022-11-12T05:43:40;13.23;;;7.57;;
21501;SDS011;27639;48.674;9.242;2022-11-12T05:46:05;14.13;;;7.93;;
21501;SDS011;27639;48.674;9.242;2022-11-12T05:48:31;25.67;;;8.20;;
21501;SDS011;27639;48.674;9.242;2022-11-12T05:50:56;13.70;;;7.55;;
21501;SDS011;27639;48.674;9.242;2022-11-12T05:53:22;13.30;;;8.50;;
21501;SDS011;27639;48.674;9.242;2022-11-12T05:55:47;11.75;;;7.50;;
21501;SDS011;27639;48.674;9.242;2022-11-12T05:58:13;11.25;;;7.90;;
21501;SDS011;27639;48.674;9.242;2022-11-12T06:00:38;10.20;;;7.50;;
21501;SDS011;27639;48.674;9.242;2022-11-12T06:03:09;15.05;;;7.13;;
21501;SDS011;27639;48.674;9.242;2022-11-12T06:05:35;13.65;;;7.05;;
21501;SDS011;27639;48.674;9.242;2022-11-12T06:08:02;10.50;;;7.03;;
21501;SDS011;27639;48.674;9.242;2022-11-12T06:10:29;8.73;;;6.13;;
21501;SDS011;27639;48.674;9.242;2022-11-12T06:12:55;8.13;;;5.50;;
21501;SDS011;27639;48.674;9.242;2022-11-12T06:15:21;10.23;;;5.90;;
21501;SDS011;27639;48.674;9.242;2022-11-12T06:17:50;8.13;;;5.68;;
21501;SDS011;27639;48.674;9.242;2022-11-12T06:20:16;9.57;;;6.03;;
21501;SDS011;27639;48.674;9.242;2022-11-12T06:22:42;9.32;;;5.55;;
21501;SDS011;27639;48.674;9.242;2022-11-12T06:25:08;7.55;;;5.65;;
21501;SDS011;27639;48.674;9.242;2022-11-12T06:27:33;8.88;;;5.97;;
21501;SDS011;27639;48.674;9.242;2022-11-12T06:29:59;9.73;;;5.30;;
21501;SDS011;27639;48.674;9.242;2022-11-12T06:32:24;10.07;;;5.90;;
21501;SDS011;27639;48.674;9.242;2022-11-12T06:34:50;8.98;;;5.97;;
21501;SDS011;27639;48.674;9.242;2022-11-12T06:37:17;9.20;;;5.78;;
21501;SDS011;27639;48.674;9.242;2022-11-12T06:39:43;10.00;;;5.50;;
21501;SDS011;27639;48.674;9.242;2022-11-12T06:42:09;7.63;;;5.35;;
21501;SDS011;27639;48.674;9.242;2022-11-12T06:44:34;9.35;;;5.72;;
21501;SDS011;27639;48.674;9.242;2022-11-12T06:47:00;8.00;;;5.65;;
21501;SDS011;27639;48.674;9.242;2022-11-12T06:49:26;14.75;;;6.63;;
21501;SDS011;27639;48.674;9.242;2022-11-12T06:51:52;7.72;;;5.75;;
21501;SDS011;27639;48.674;9.242;2022-11-12T06:54:17;11.00;;;6.78;;
21501;SDS011;27639;48.674;9.242;2022-11-12T06:56:43;9.68;;;6.55;;
21501;SDS011;27639;48.674;9.242;2022-11-12T06:59:09;12.88;;;6.60;;
21501;SDS011;27639;48.674;9.242;2022-11-12T07:01:34;11.70;;;7.68;;
21501;SDS011;27639;48.674;9.242;2022-11-12T07:04:00;12.15;;;7.95;;
21501;SDS011;27639;48.674;9.242;2022-11-12T07:06:25;8.50;;;6.78;;
21501;SDS011;27639;48.674;9.242;2022-11-12T07:08:51;8.95;;;6.25;;
21501;SDS011;27639;48.674;9.242;2022-11-12T07:11:17;9.38;;;6.65;;
21501;SDS011;27639;48.674;9.242;2022-11-12T07:13:43;9.65;;;6.85;;
21501;SDS011;27639;48.674;9.242;2022-11-12T07:16:10;10.88;;;7.93;;
21501;SDS011;27639;48.674;9.242;2022-11-12T07:18:37;10.35;;;7.18;;
21501;SDS011;27639;48.674;9.242;2022-11-12T07:21:04;8.45;;;6.93;;
21501;SDS011;27639;48.674;9.242;2022-11-12T07:23:33;8.77;;;6.18;;
21501;SDS011;27639;48.674;9.242;2022-11-12T07:26:07;8.05;;;5.68;;
21501;SDS011;27639;48.674;9.242;2022-11-12T07:28:40;7.85;;;5.70;;
21501;SDS011;27639;48.674;9.242;2022-11-12T07:31:06;7.88;;;5.70;;
21501;SDS011;27639;48.674;9.242;2022-11-12T07:33:34;12.73;;;5.85;;
21501;SDS011;27639;48.674;9.242;2022-11-12T07:36:00;17.45;;;6.30;;
21501;SDS011;27639;48.674;9.242;2022-11-12T07:38:29;19.85;;;5.78;;
21501;SDS011;27639;48.674;9.242;2022-11-12T07:41:03;18.55;;;6.15;;
21501;SDS011;27639;48.674;9.242;2022-11-12T07:43:31;12.32;;;5.82;;
21501;SDS011;27639;48.674;9.242;2022-11-12T07:46:01;10.98;;;5.72;;
21501;SDS011;27639;48.674;9.242;2022-11-12T07:48:32;9.80;;;5.20;;
21501;SDS011;27639;48.674;9.242;2022-11-12T07:50:59;7.05;;;5.22;;
21501;SDS011;27639;48.674;9.242;2022-11-12T07:53:26;11.05;;;5.60;;
21501;SDS011;27639;48.674;9.242;2022-11-12T07:55:52;7.60;;;5.40;;
21501;SDS011;27639;48.674;9.242;2022-11-12T07:58:19;7.93;;;6.03;;
21501;SDS011;27639;48.674;9.242;2022-11-12T08:00:45;8.05;;;6.05;;
21501;SDS011;27639;48.674;9.242;2022-11-12T08:03:11;8.20;;;6.57;;
21501;SDS011;27639;48.674;9.242;2022-11-12T08:05:36;8.95;;;6.45;;
21501;SDS011;27639;48.674;9.242;2022-11-12T08:08:02;7.90;;;5.80;;
21501;SDS011;27639;48.674;9.242;2022-11-12T08:10:27;7.75;;;4.95;;
21501;SDS011;27639;48.674;9.242;2022-11-12T08:12:54;7.07;;;5.10;;
21501;SDS011;27639;48.674;9.242;2022-11-12T08:15:20;7.05;;;4.75;;
21501;SDS011;27639;48.674;9.242;2022-11-12T08:17:46;7.20;;;5.38;;
21501;SDS011;27639;48.674;9.242;2022-11-12T08:20:11;7.18;;;5.28;;
21501;SDS011;27639;48.674;9.242;2022-11-12T08:22:37;7.20;;;4.75;;
21501;SDS011;27639;48.674;9.242;2022-11-12T08:25:03;6.35;;;4.88;;
21501;SDS011;27639;48.674;9.242;2022-11-12T08:27:28;7.68;;;4.57;;
21501;SDS011;27639;48.674;9.242;2022-11-12T08:29:54;6.47;;;4.88;;
21501;SDS011;27639;48.674;9.242;2022-11-12T08:32:20;6.20;;;4.43;;
21501;SDS011;27639;48.674;9.242;2022-11-12T08:34:45;6.75;;;4.93;;
21501;SDS011;27639;48.674;9.242;2022-11-12T08:37:11;6.43;;;4.57;;
21501;SDS011;27639;48.674;9.242;2022-11-12T08:39:37;8.85;;;5.70;;
21501;SDS011;27639;48.674;9.242;2022-11-12T08:42:03;6.38;;;4.88;;
21501;SDS011;27639;48.674;9.242;2022-11-12T08:44:29;7.47;;;5.03;;
21501;SDS011;27639;48.674;9.242;2022-11-12T08:46:54;7.55;;;5.32;;
21501;SDS011;27639;48.674;9.242;2022-11-12T08:49:20;6.75;;;5.10;;
21501;SDS011;27639;48.674;9.242;2022-11-12T08:51:45;7.35;;;6.03;;
21501;SDS011;27639;48.674;9.242;2022-11-12T08:54:11;8.52;;;6.80;;
21501;SDS011;27639;48.674;9.242;2022-11-12T08:56:37;7.68;;;5.95;;
21501;SDS011;27639;48.674;9.242;2022-11-12T08:59:03;10.38;;;6.30;;
21501;SDS011;27639;48.674;9.242;2022-11-12T09:01:29;8.93;;;5.47;;
21501;SDS011;27639;48.674;9.242;2022-11-12T09:03:54;7.15;;;5.28;;
21501;SDS011;27639;48.674;9.242;2022-11-12T09:06:20;6.50;;;4.88;;
21501;SDS011;27639;48.674;9.242;2022-11-12T09:08:45;6.45;;;5.00;;
21501;SDS011;27639;48.674;9.242;2022-11-12T09:11:11;7.47;;;5.43;;
21501;SDS011;27639;48.674;9.242;2022-11-12T09:13:37;7.43;;;5.18;;
21501;SDS011;27639;48.674;9.242;2022-11-12T09:16:03;7.82;;;6.50;;
21501;SDS011;27639;48.674;9.242;2022-11-12T09:18:30;6.80;;;5.22;;
21501;SDS011;27639;48.674;9.242;2022-11-12T09:21:04;5.82;;;4.53;;
21501;SDS011;27639;48.674;9.242;2022-11-12T09:23:34;5.50;;;4.38;;
21501;SDS011;27639;48.674;9.242;2022-11-12T09:26:00;6.75;;;4.72;;
21501;SDS011;27639;48.674;9.242;2022-11-12T09:28:27;6.28;;;4.20;;
21501;SDS011;27639;48.674;9.242;2022-11-12T09:30:53;5.20;;;4.20;;
21501;SDS011;27639;48.674;9.242;2022-11-12T09:33:21;5.93;;;4.22;;
21501;SDS011;27639;48.674;9.242;2022-11-12T09:35:48;5.22;;;4.25;;
21501;SDS011;27639;48.674;9.242;2022-11-12T09:38:15;6.53;;;4.30;;
21501;SDS011;27639;48.674;9.242;2022-11-12T09:43:26;5.75;;;4.20;;
21501;SDS011;27639;48.674;9.242;2022-11-12T09:48:57;6.00;;;4.40;;
21501;SDS011;27639;48.674;9.242;2022-11-12T09:51:29;6.75;;;4.53;;
21501;SDS011;27639;48.674;9.242;2022-11-12T09:53:59;7.88;;;4.95;;
21501;SDS011;27639;48.674;9.242;2022-11-12T09:56:37;5.97;;;4.43;;
21501;SDS011;27639;48.674;9.242;2022-11-12T09:59:07;7.30;;;4.32;;
21501;SDS011;27639;48.674;9.242;2022-11-12T10:07:10;7.93;;;5.18;;
21501;SDS011;27639;48.674;9.242;2022-11-12T10:12:16;5.68;;;4.40;;
21501;SDS011;27639;48.674;9.242;2022-11-12T10:18:12;6.75;;;5.20;;
21501;SDS011;27639;48.674;9.242;2022-11-12T10:21:00;6.18;;;4.57;;
21501;SDS011;27639;48.674;9.242;2022-11-12T10:23:45;5.82;;;4.75;;
21501;SDS011;27639;48.674;9.242;2022-11-12T10:26:16;7.05;;;5.03;;
21501;SDS011;27639;48.674;9.242;2022-11-12T10:28:46;5.85;;;4.85;;
21501;SDS011;27639;48.674;9.242;2022-11-12T10:31:16;7.63;;;5.10;;
21501;SDS011;27639;48.674;9.242;2022-11-12T10:33:44;7.15;;;4.70;;
21501;SDS011;27639;48.674;9.242;2022-11-12T10:36:22;5.75;;;4.30;;
21501;SDS011;27639;48.674;9.242;2022-11-12T10:38:52;7.50;;;4.70;;
21501;SDS011;27639;48.674;9.242;2022-11-12T10:43:54;7.60;;;4.90;;
21501;SDS011;27639;48.674;9.242;2022-11-12T10:46:36;6.57;;;4.68;;
21501;SDS011;27639;48.674;9.242;2022-11-12T10:49:04;7.70;;;5.40;;
21501;SDS011;27639;48.674;9.242;2022-11-12T10:51:33;10.07;;;6.32;;
21501;SDS011;27639;48.674;9.242;2022-11-12T10:54:18;7.93;;;5.47;;
21501;SDS011;27639;48.674;9.242;2022-11-12T10:57:17;7.85;;;5.93;;
21501;SDS011;27639;48.674;9.242;2022-11-12T10:59:45;7.30;;;5.28;;
21501;SDS011;27639;48.674;9.242;2022-11-12T11:02:15;7.03;;;5.53;;
21501;SDS011;27639;48.674;9.242;2022-11-12T11:04:42;6.45;;;4.80;;
21501;SDS011;27639;48.674;9.242;2022-11-12T11:07:21;6.90;;;5.15;;
21501;SDS011;27639;48.674;9.242;2022-11-12T11:09:59;7.68;;;5.50;;
21501;SDS011;27639;48.674;9.242;2022-11-12T11:12:26;6.95;;;4.97;;
21501;SDS011;27639;48.674;9.242;2022-11-12T11:17:39;6.57;;;4.50;;
21501;SDS011;27639;48.674;9.242;2022-11-12T11:20:13;6.65;;;4.75;;
21501;SDS011;27639;48.674;9.242;2022-11-12T11:25:25;7.30;;;5.40;;
21501;SDS011;27639;48.674;9.242;2022-11-12T11:30:37;6.55;;;5.20;;
21501;SDS011;27639;48.674;9.242;2022-11-12T11:33:38;6.40;;;4.95;;
21501;SDS011;27639;48.674;9.242;2022-11-12T11:47:53;5.85;;;4.57;;
21501;SDS011;27639;48.674;9.242;2022-11-12T11:50:30;6.43;;;4.88;;
21501;SDS011;27639;48.674;9.242;2022-11-12T11:53:09;6.03;;;4.38;;
21501;SDS011;27639;48.674;9.242;2022-11-12T12:00:56;8.90;;;5.15;;
21501;SDS011;27639;48.674;9.242;2022-11-12T12:03:37;6.78;;;4.60;;
21501;SDS011;27639;48.674;9.242;2022-11-12T12:06:22;5.07;;;4.15;;
21501;SDS011;27639;48.674;9.242;2022-11-12T12:08:57;6.47;;;4.80;;
21501;SDS011;27639;48.674;9.242;2022-11-12T12:11:49;5.75;;;4.32;;
21501;SDS011;27639;48.674;9.242;2022-11-12T12:22:23;6.97;;;5.10;;
21501;SDS011;27639;48.674;9.242;2022-11-12T12:25:22;6.30;;;4.65;;
21501;SDS011;27639;48.674;9.242;2022-11-12T12:27:53;6.05;;;4.45;;
21501;SDS011;27639;48.674;9.242;2022-11-12T12:30:34;6.53;;;4.78;;
21501;SDS011;27639;48.674;9.242;2022-11-12T12:35:43;7.85;;;5.10;;
21501;SDS011;27639;48.674;9.242;2022-11-12T12:43:35;10.77;;;5.95;;
21501;SDS011;27639;48.674;9.242;2022-11-12T12:46:02;7.65;;;5.90;;
21501;SDS011;27639;48.674;9.242;2022-11-12T12:48:30;7.13;;;5.53;;
21501;SDS011;27639;48.674;9.242;2022-11-12T12:50:58;7.38;;;5.55;;
21501;SDS011;27639;48.674;9.242;2022-11-12T12:55:56;8.95;;;5.85;;
21501;SDS011;27639;48.674;9.242;2022-11-12T12:58:26;7.70;;;6.18;;
21501;SDS011;27639;48.674;9.242;2022-11-12T13:00:59;7.00;;;6.10;;
21501;SDS011;27639;48.674;9.242;2022-11-12T13:06:12;6.95;;;5.43;;
21501;SDS011;27639;48.674;9.242;2022-11-12T13:08:45;8.82;;;6.03;;
21501;SDS011;27639;48.674;9.242;2022-11-12T13:11:36;7.18;;;5.85;;
21501;SDS011;27639;48.674;9.242;2022-11-12T13:17:07;7.65;;;6.03;;
21501;SDS011;27639;48.674;9.242;2022-11-12T13:40:35;8.48;;;6.53;;
21501;SDS011;27639;48.674;9.242;2022-11-12T13:43:36;8.63;;;6.40;;
21501;SDS011;27639;48.674;9.242;2022-11-12T13:46:30;7.10;;;5.95;;
21501;SDS011;27639;48.674;9.242;2022-11-12T13:49:01;10.35;;;6.47;;
21501;SDS011;27639;48.674;9.242;2022-11-12T13:54:22;8.95;;;6.32;;
21501;SDS011;27639;48.674;9.242;2022-11-12T13:56:51;9.32;;;6.95;;
21501;SDS011;27639;48.674;9.242;2022-11-12T13:59:18;10.48;;;7.00;;
21501;SDS011;27639;48.674;9.242;2022-11-12T14:01:46;8.75;;;7.05;;
21501;SDS011;27639;48.674;9.242;2022-11-12T14:04:14;8.02;;;6.47;;
21501;SDS011;27639;48.674;9.242;2022-11-12T14:06:43;8.38;;;6.53;;
21501;SDS011;27639;48.674;9.242;2022-11-12T14:22:49;9.02;;;6.95;;
21501;SDS011;27639;48.674;9.242;2022-11-12T14:25:16;12.32;;;8.23;;
21501;SDS011;27639;48.674;9.242;2022-11-12T14:27:50;11.20;;;7.68;;
21501;SDS011;27639;48.674;9.242;2022-11-12T14:32:51;9.80;;;7.28;;
21501;SDS011;27639;48.674;9.242;2022-11-12T14:35:29;8.73;;;7.28;;
21501;SDS011;27639;48.674;9.242;2022-11-12T14:37:58;10.07;;;7.40;;
21501;SDS011;27639;48.674;9.242;2022-11-12T14:40:34;10.88;;;7.72;;
21501;SDS011;27639;48.674;9.242;2022-11-12T14:43:02;9.40;;;7.05;;
21501;SDS011;27639;48.674;9.242;2022-11-12T14:45:29;14.68;;;9.27;;
21501;SDS011;27639;48.674;9.242;2022-11-12T14:47:55;11.45;;;8.50;;
21501;SDS011;27639;48.674;9.242;2022-11-12T14:50:29;11.05;;;7.88;;
21501;SDS011;27639;48.674;9.242;2022-11-12T14:52:57;9.55;;;7.38;;
21501;SDS011;27639;48.674;9.242;2022-11-12T14:55:43;9.18;;;7.40;;
21501;SDS011;27639;48.674;9.242;2022-11-12T14:58:14;9.75;;;6.63;;
21501;SDS011;27639;48.674;9.242;2022-11-12T15:00:41;12.20;;;8.15;;
21501;SDS011;27639;48.674;9.242;2022-11-12T15:03:18;12.73;;;7.93;;
21501;SDS011;27639;48.674;9.242;2022-11-12T15:05:54;10.82;;;7.95;;
21501;SDS011;27639;48.674;9.242;2022-11-12T15:08:28;11.75;;;7.80;;
21501;SDS011;27639;48.674;9.242;2022-11-12T15:13:22;12.40;;;8.25;;
21501;SDS011;27639;48.674;9.242;2022-11-12T15:16:02;9.55;;;7.85;;
21501;SDS011;27639;48.674;9.242;2022-11-12T15:18:31;11.18;;;7.20;;
21501;SDS011;27639;48.674;9.242;2022-11-12T15:23:44;11.10;;;7.82;;
21501;SDS011;27639;48.674;9.242;2022-11-12T15:26:33;11.55;;;7.80;;
21501;SDS011;27639;48.674;9.242;2022-11-12T15:29:01;11.93;;;8.48;;
21501;SDS011;27639;48.674;9.242;2022-11-12T15:31:41;13.88;;;9.32;;
21501;SDS011;27639;48.674;9.242;2022-11-12T15:34:26;17.65;;;11.68;;
21501;SDS011;27639;48.674;9.242;2022-11-12T15:36:53;15.65;;;9.77;;
21501;SDS011;27639;48.674;9.242;2022-11-12T15:39:19;15.55;;;9.80;;
21501;SDS011;27639;48.674;9.242;2022-11-12T15:41:46;17.65;;;10.48;;
21501;SDS011;27639;48.674;9.242;2022-11-12T15:44:12;16.58;;;9.27;;
21501;SDS011;27639;48.674;9.242;2022-11-12T15:46:37;17.23;;;10.15;;
21501;SDS011;27639;48.674;9.242;2022-11-12T15:49:10;17.60;;;9.73;;
21501;SDS011;27639;48.674;9.242;2022-11-12T15:51:36;12.85;;;8.90;;
21501;SDS011;27639;48.674;9.242;2022-11-12T15:54:02;14.32;;;9.98;;
21501;SDS011;27639;48.674;9.242;2022-11-12T15:56:28;13.88;;;9.32;;
21501;SDS011;27639;48.674;9.242;2022-11-12T15:58:54;18.95;;;12.13;;
21501;SDS011;27639;48.674;9.242;2022-11-12T16:01:19;20.88;;;14.48;;
21501;SDS011;27639;48.674;9.242;2022-11-12T16:03:45;20.35;;;15.93;;
21501;SDS011;27639;48.674;9.242;2022-11-12T16:06:11;24.83;;;16.38;;
21501;SDS011;27639;48.674;9.242;2022-11-12T16:08:36;26.02;;;17.08;;
21501;SDS011;27639;48.674;9.242;2022-11-12T16:11:02;24.48;;;16.83;;
21501;SDS011;27639;48.674;9.242;2022-11-12T16:13:48;23.77;;;17.63;;
21501;SDS011;27639;48.674;9.242;2022-11-12T16:16:13;23.00;;;16.73;;
21501;SDS011;27639;48.674;9.242;2022-11-12T16:18:39;26.33;;;17.50;;
21501;SDS011;27639;48.674;9.242;2022-11-12T16:21:04;27.23;;;17.48;;
21501;SDS011;27639;48.674;9.242;2022-11-12T16:23:30;32.65;;;17.88;;
21501;SDS011;27639;48.674;9.242;2022-11-12T16:25:56;31.20;;;17.88;;
21501;SDS011;27639;48.674;9.242;2022-11-12T16:28:21;29.33;;;18.20;;
21501;SDS011;27639;48.674;9.242;2022-11-12T16:30:47;42.25;;;22.15;;
21501;SDS011;27639;48.674;9.242;2022-11-12T16:33:14;37.42;;;22.92;;
21501;SDS011;27639;48.674;9.242;2022-11-12T16:35:40;40.20;;;21.90;;
21501;SDS011;27639;48.674;9.242;2022-11-12T16:38:11;37.55;;;23.35;;
21501;SDS011;27639;48.674;9.242;2022-11-12T16:40:41;41.25;;;21.88;;
21501;SDS011;27639;48.674;9.242;2022-11-12T16:43:07;35.90;;;21.10;;
21501;SDS011;27639;48.674;9.242;2022-11-12T16:45:42;34.47;;;21.75;;
21501;SDS011;27639;48.674;9.242;2022-11-12T16:48:19;32.15;;;20.20;;